sensor_id;sensor_type;location;lat;lon;timestamp;temperature;humidity
76613;DHT22;65507;48.454;-2.058;2023-02-17T00:00:27;14.00;80.50
76613;DHT22;65507;48.454;-2.058;2023-02-17T00:02:57;14.00;80.50
76613;DHT22;65507;48.454;-2.058;2023-02-17T00:05:24;14.10;80.60
76613;DHT22;65507;48.454;-2.058;2023-02-17T00:07:49;14.10;80.70
76613;DHT22;65507;48.454;-2.058;2023-02-17T00:10:15;14.10;80.60
76613;DHT22;65507;48.454;-2.058;2023-02-17T00:12:41;14.10;80.60
76613;DHT22;65507;48.454;-2.058;2023-02-17T00:15:07;14.10;81.50
76613;DHT22;65507;48.454;-2.058;2023-02-17T00:17:33;14.10;80.60
76613;DHT22;65507;48.454;-2.058;2023-02-17T00:19:59;14.10;80.60
76613;DHT22;65507;48.454;-2.058;2023-02-17T00:22:25;14.00;80.60
76613;DHT22;65507;48.454;-2.058;2023-02-17T00:24:50;14.10;80.60
76613;DHT22;65507;48.454;-2.058;2023-02-17T00:27:16;14.00;80.60
76613;DHT22;65507;48.454;-2.058;2023-02-17T00:29:42;14.10;80.70
76613;DHT22;65507;48.454;-2.058;2023-02-17T00:32:08;14.10;80.70
76613;DHT22;65507;48.454;-2.058;2023-02-17T00:34:35;14.10;80.60
76613;DHT22;65507;48.454;-2.058;2023-02-17T00:37:00;14.10;80.70
76613;DHT22;65507;48.454;-2.058;2023-02-17T00:39:26;14.10;80.60
76613;DHT22;65507;48.454;-2.058;2023-02-17T00:41:52;14.10;80.60
76613;DHT22;65507;48.454;-2.058;2023-02-17T00:44:21;14.10;80.70
76613;DHT22;65507;48.454;-2.058;2023-02-17T00:46:47;14.10;80.60
76613;DHT22;65507;48.454;-2.058;2023-02-17T00:49:21;14.20;80.70
76613;DHT22;65507;48.454;-2.058;2023-02-17T00:51:47;14.20;80.70
76613;DHT22;65507;48.454;-2.058;2023-02-17T00:54:14;14.20;80.70
76613;DHT22;65507;48.454;-2.058;2023-02-17T00:56:40;14.20;80.70
76613;DHT22;65507;48.454;-2.058;2023-02-17T00:59:06;14.20;80.70
76613;DHT22;65507;48.454;-2.058;2023-02-17T01:01:32;14.20;80.80
76613;DHT22;65507;48.454;-2.058;2023-02-17T01:03:57;14.20;80.90
76613;DHT22;65507;48.454;-2.058;2023-02-17T01:06:41;14.20;80.90
76613;DHT22;65507;48.454;-2.058;2023-02-17T01:09:08;14.20;81.00
76613;DHT22;65507;48.454;-2.058;2023-02-17T01:11:37;14.20;81.00
76613;DHT22;65507;48.454;-2.058;2023-02-17T01:14:04;14.20;81.00
76613;DHT22;65507;48.454;-2.058;2023-02-17T01:16:45;14.20;81.00
76613;DHT22;65507;48.454;-2.058;2023-02-17T01:19:17;14.20;81.10
76613;DHT22;65507;48.454;-2.058;2023-02-17T01:21:44;14.20;81.10
76613;DHT22;65507;48.454;-2.058;2023-02-17T01:24:10;14.20;81.20
76613;DHT22;65507;48.454;-2.058;2023-02-17T01:26:37;14.20;81.20
76613;DHT22;65507;48.454;-2.058;2023-02-17T01:29:04;14.20;81.20
76613;DHT22;65507;48.454;-2.058;2023-02-17T01:31:31;14.20;81.20
76613;DHT22;65507;48.454;-2.058;2023-02-17T01:34:00;14.10;81.20
76613;DHT22;65507;48.454;-2.058;2023-02-17T01:36:26;14.10;81.30
76613;DHT22;65507;48.454;-2.058;2023-02-17T01:38:52;14.10;81.30
76613;DHT22;65507;48.454;-2.058;2023-02-17T01:41:20;14.10;81.40
76613;DHT22;65507;48.454;-2.058;2023-02-17T01:44:16;14.10;81.40
76613;DHT22;65507;48.454;-2.058;2023-02-17T01:46:48;14.10;81.40
76613;DHT22;65507;48.454;-2.058;2023-02-17T01:51:45;14.10;81.50
76613;DHT22;65507;48.454;-2.058;2023-02-17T01:54:24;14.00;81.50
76613;DHT22;65507;48.454;-2.058;2023-02-17T01:56:52;14.00;81.50
76613;DHT22;65507;48.454;-2.058;2023-02-17T01:59:19;14.00;81.60
76613;DHT22;65507;48.454;-2.058;2023-02-17T02:01:48;14.00;81.70
76613;DHT22;65507;48.454;-2.058;2023-02-17T02:04:18;14.00;81.70
76613;DHT22;65507;48.454;-2.058;2023-02-17T02:06:45;13.90;81.70
76613;DHT22;65507;48.454;-2.058;2023-02-17T02:09:28;13.90;81.60
76613;DHT22;65507;48.454;-2.058;2023-02-17T02:11:55;13.90;81.70
76613;DHT22;65507;48.454;-2.058;2023-02-17T02:14:21;13.90;81.70
76613;DHT22;65507;48.454;-2.058;2023-02-17T02:31:39;14.00;81.80
76613;DHT22;65507;48.454;-2.058;2023-02-17T02:33:58;14.00;81.80
76613;DHT22;65507;48.454;-2.058;2023-02-17T02:36:45;14.00;81.80
76613;DHT22;65507;48.454;-2.058;2023-02-17T02:39:16;14.00;81.90
76613;DHT22;65507;48.454;-2.058;2023-02-17T02:41:52;14.00;82.80
76613;DHT22;65507;48.454;-2.058;2023-02-17T02:44:19;14.00;81.90
76613;DHT22;65507;48.454;-2.058;2023-02-17T02:46:56;14.00;81.90
76613;DHT22;65507;48.454;-2.058;2023-02-17T02:49:22;14.00;82.00
76613;DHT22;65507;48.454;-2.058;2023-02-17T02:51:50;14.00;82.00
76613;DHT22;65507;48.454;-2.058;2023-02-17T03:05:10;13.90;82.20
76613;DHT22;65507;48.454;-2.058;2023-02-17T03:07:41;13.90;82.20
76613;DHT22;65507;48.454;-2.058;2023-02-17T03:10:09;13.90;82.20
76613;DHT22;65507;48.454;-2.058;2023-02-17T03:12:38;13.90;82.20
76613;DHT22;65507;48.454;-2.058;2023-02-17T03:15:11;13.90;82.20
76613;DHT22;65507;48.454;-2.058;2023-02-17T03:17:38;13.90;82.30
76613;DHT22;65507;48.454;-2.058;2023-02-17T03:20:05;13.90;82.30
76613;DHT22;65507;48.454;-2.058;2023-02-17T03:22:35;13.90;82.30
76613;DHT22;65507;48.454;-2.058;2023-02-17T03:25:01;13.90;82.40
76613;DHT22;65507;48.454;-2.058;2023-02-17T03:27:27;13.80;82.40
76613;DHT22;65507;48.454;-2.058;2023-02-17T03:29:53;13.90;82.50
76613;DHT22;65507;48.454;-2.058;2023-02-17T03:32:19;13.90;82.50
76613;DHT22;65507;48.454;-2.058;2023-02-17T03:34:45;13.80;82.40
76613;DHT22;65507;48.454;-2.058;2023-02-17T03:37:11;13.80;82.40
76613;DHT22;65507;48.454;-2.058;2023-02-17T03:39:36;13.80;82.40
76613;DHT22;65507;48.454;-2.058;2023-02-17T03:42:02;13.80;83.40
76613;DHT22;65507;48.454;-2.058;2023-02-17T03:44:28;13.80;82.50
76613;DHT22;65507;48.454;-2.058;2023-02-17T03:46:53;13.80;82.60
76613;DHT22;65507;48.454;-2.058;2023-02-17T03:49:19;13.80;82.70
76613;DHT22;65507;48.454;-2.058;2023-02-17T03:51:45;13.80;82.70
76613;DHT22;65507;48.454;-2.058;2023-02-17T03:54:11;13.80;82.70
76613;DHT22;65507;48.454;-2.058;2023-02-17T03:56:36;13.80;82.60
76613;DHT22;65507;48.454;-2.058;2023-02-17T03:59:02;13.80;82.50
76613;DHT22;65507;48.454;-2.058;2023-02-17T04:01:28;13.80;82.50
76613;DHT22;65507;48.454;-2.058;2023-02-17T04:03:54;13.80;82.50
76613;DHT22;65507;48.454;-2.058;2023-02-17T04:06:20;13.80;82.50
76613;DHT22;65507;48.454;-2.058;2023-02-17T04:08:46;13.90;82.50
76613;DHT22;65507;48.454;-2.058;2023-02-17T04:11:11;13.90;82.50
76613;DHT22;65507;48.454;-2.058;2023-02-17T04:13:37;13.90;82.50
76613;DHT22;65507;48.454;-2.058;2023-02-17T04:16:06;13.90;82.50
76613;DHT22;65507;48.454;-2.058;2023-02-17T04:18:32;13.90;82.50
76613;DHT22;65507;48.454;-2.058;2023-02-17T04:20:58;13.90;82.50
76613;DHT22;65507;48.454;-2.058;2023-02-17T04:23:24;13.90;82.40
76613;DHT22;65507;48.454;-2.058;2023-02-17T04:25:50;13.90;82.50
76613;DHT22;65507;48.454;-2.058;2023-02-17T04:28:16;13.90;82.50
76613;DHT22;65507;48.454;-2.058;2023-02-17T04:30:45;13.90;82.50
76613;DHT22;65507;48.454;-2.058;2023-02-17T04:33:11;13.90;82.50
76613;DHT22;65507;48.454;-2.058;2023-02-17T04:35:37;13.90;82.50
76613;DHT22;65507;48.454;-2.058;2023-02-17T04:38:03;13.90;82.40
76613;DHT22;65507;48.454;-2.058;2023-02-17T04:40:30;13.90;82.50
76613;DHT22;65507;48.454;-2.058;2023-02-17T04:42:55;13.90;82.50
76613;DHT22;65507;48.454;-2.058;2023-02-17T04:45:21;14.00;82.60
76613;DHT22;65507;48.454;-2.058;2023-02-17T04:47:47;13.90;82.50
76613;DHT22;65507;48.454;-2.058;2023-02-17T04:50:13;14.00;82.60
76613;DHT22;65507;48.454;-2.058;2023-02-17T04:52:39;14.00;82.60
76613;DHT22;65507;48.454;-2.058;2023-02-17T04:55:05;14.00;82.60
76613;DHT22;65507;48.454;-2.058;2023-02-17T04:57:32;14.00;82.60
76613;DHT22;65507;48.454;-2.058;2023-02-17T04:59:57;14.00;82.70
76613;DHT22;65507;48.454;-2.058;2023-02-17T05:02:23;14.00;82.60
76613;DHT22;65507;48.454;-2.058;2023-02-17T05:04:51;14.00;82.60
76613;DHT22;65507;48.454;-2.058;2023-02-17T05:07:18;14.00;82.60
76613;DHT22;65507;48.454;-2.058;2023-02-17T05:09:44;14.00;82.70
76613;DHT22;65507;48.454;-2.058;2023-02-17T05:12:09;14.00;82.70
76613;DHT22;65507;48.454;-2.058;2023-02-17T05:14:35;14.00;82.80
76613;DHT22;65507;48.454;-2.058;2023-02-17T05:17:01;14.00;82.80
76613;DHT22;65507;48.454;-2.058;2023-02-17T05:19:27;13.90;82.80
76613;DHT22;65507;48.454;-2.058;2023-02-17T05:21:52;13.90;82.90
76613;DHT22;65507;48.454;-2.058;2023-02-17T05:24:18;14.00;82.80
76613;DHT22;65507;48.454;-2.058;2023-02-17T05:26:44;14.00;82.80
76613;DHT22;65507;48.454;-2.058;2023-02-17T05:29:09;14.00;82.90
76613;DHT22;65507;48.454;-2.058;2023-02-17T05:31:35;14.00;82.80
76613;DHT22;65507;48.454;-2.058;2023-02-17T05:34:01;14.00;82.90
76613;DHT22;65507;48.454;-2.058;2023-02-17T05:36:26;14.00;82.80
76613;DHT22;65507;48.454;-2.058;2023-02-17T05:38:52;14.00;82.80
76613;DHT22;65507;48.454;-2.058;2023-02-17T05:41:19;14.00;82.80
76613;DHT22;65507;48.454;-2.058;2023-02-17T05:43:45;14.00;82.80
76613;DHT22;65507;48.454;-2.058;2023-02-17T05:46:11;14.00;82.80
76613;DHT22;65507;48.454;-2.058;2023-02-17T05:48:37;14.00;82.80
76613;DHT22;65507;48.454;-2.058;2023-02-17T05:51:03;14.00;82.80
76613;DHT22;65507;48.454;-2.058;2023-02-17T05:53:29;14.00;82.80
76613;DHT22;65507;48.454;-2.058;2023-02-17T05:55:54;14.00;82.90
76613;DHT22;65507;48.454;-2.058;2023-02-17T05:58:20;14.00;83.00
76613;DHT22;65507;48.454;-2.058;2023-02-17T06:00:46;14.00;83.00
76613;DHT22;65507;48.454;-2.058;2023-02-17T06:03:12;14.00;83.00
76613;DHT22;65507;48.454;-2.058;2023-02-17T06:05:38;14.00;83.20
76613;DHT22;65507;48.454;-2.058;2023-02-17T06:08:04;14.00;83.10
76613;DHT22;65507;48.454;-2.058;2023-02-17T06:10:30;14.00;83.20
76613;DHT22;65507;48.454;-2.058;2023-02-17T06:12:56;14.00;83.20
76613;DHT22;65507;48.454;-2.058;2023-02-17T06:15:22;14.00;83.20
76613;DHT22;65507;48.454;-2.058;2023-02-17T06:17:48;14.00;83.20
76613;DHT22;65507;48.454;-2.058;2023-02-17T06:20:13;14.00;83.20
76613;DHT22;65507;48.454;-2.058;2023-02-17T06:22:40;14.00;83.10
76613;DHT22;65507;48.454;-2.058;2023-02-17T06:25:06;14.00;83.10
76613;DHT22;65507;48.454;-2.058;2023-02-17T06:27:32;14.00;83.20
76613;DHT22;65507;48.454;-2.058;2023-02-17T06:29:58;14.00;83.10
76613;DHT22;65507;48.454;-2.058;2023-02-17T06:32:24;14.00;83.00
76613;DHT22;65507;48.454;-2.058;2023-02-17T06:34:50;14.10;83.10
76613;DHT22;65507;48.454;-2.058;2023-02-17T06:37:15;14.10;83.00
76613;DHT22;65507;48.454;-2.058;2023-02-17T06:39:41;14.00;83.00
76613;DHT22;65507;48.454;-2.058;2023-02-17T06:42:07;14.10;83.10
76613;DHT22;65507;48.454;-2.058;2023-02-17T06:44:32;14.10;83.10
76613;DHT22;65507;48.454;-2.058;2023-02-17T06:46:58;14.10;83.00
76613;DHT22;65507;48.454;-2.058;2023-02-17T06:49:24;14.10;83.10
76613;DHT22;65507;48.454;-2.058;2023-02-17T06:51:50;14.10;83.00
76613;DHT22;65507;48.454;-2.058;2023-02-17T06:54:16;14.10;83.00
76613;DHT22;65507;48.454;-2.058;2023-02-17T06:56:41;14.10;83.00
76613;DHT22;65507;48.454;-2.058;2023-02-17T06:59:07;14.10;82.90
76613;DHT22;65507;48.454;-2.058;2023-02-17T07:01:33;14.10;82.90
76613;DHT22;65507;48.454;-2.058;2023-02-17T07:03:59;14.10;82.90
76613;DHT22;65507;48.454;-2.058;2023-02-17T07:06:25;14.10;82.90
76613;DHT22;65507;48.454;-2.058;2023-02-17T07:08:51;14.10;82.90
76613;DHT22;65507;48.454;-2.058;2023-02-17T07:11:17;14.10;82.90
76613;DHT22;65507;48.454;-2.058;2023-02-17T07:13:43;14.10;83.00
76613;DHT22;65507;48.454;-2.058;2023-02-17T07:16:11;13.20;82.60
76613;DHT22;65507;48.454;-2.058;2023-02-17T07:18:37;14.20;84.00
76613;DHT22;65507;48.454;-2.058;2023-02-17T07:21:08;14.20;83.10
76613;DHT22;65507;48.454;-2.058;2023-02-17T07:23:34;14.10;83.10
76613;DHT22;65507;48.454;-2.058;2023-02-17T07:26:01;14.10;83.10
76613;DHT22;65507;48.454;-2.058;2023-02-17T07:28:27;14.10;83.10
76613;DHT22;65507;48.454;-2.058;2023-02-17T07:30:53;14.10;83.10
76613;DHT22;65507;48.454;-2.058;2023-02-17T07:33:19;14.10;83.10
76613;DHT22;65507;48.454;-2.058;2023-02-17T07:35:44;14.20;83.10
76613;DHT22;65507;48.454;-2.058;2023-02-17T07:38:11;14.10;83.00
76613;DHT22;65507;48.454;-2.058;2023-02-17T07:40:37;14.20;83.10
76613;DHT22;65507;48.454;-2.058;2023-02-17T07:43:02;14.20;83.00
76613;DHT22;65507;48.454;-2.058;2023-02-17T07:45:28;14.20;83.00
76613;DHT22;65507;48.454;-2.058;2023-02-17T07:47:54;14.20;83.00
76613;DHT22;65507;48.454;-2.058;2023-02-17T07:50:20;14.30;83.00
76613;DHT22;65507;48.454;-2.058;2023-02-17T07:52:46;14.30;82.90
76613;DHT22;65507;48.454;-2.058;2023-02-17T07:55:11;14.30;82.90
76613;DHT22;65507;48.454;-2.058;2023-02-17T07:57:37;14.30;82.90
76613;DHT22;65507;48.454;-2.058;2023-02-17T08:00:04;14.30;82.90
76613;DHT22;65507;48.454;-2.058;2023-02-17T08:02:30;14.30;82.80
76613;DHT22;65507;48.454;-2.058;2023-02-17T08:04:55;14.40;82.70
76613;DHT22;65507;48.454;-2.058;2023-02-17T08:07:21;14.40;82.70
76613;DHT22;65507;48.454;-2.058;2023-02-17T08:09:47;14.40;82.60
76613;DHT22;65507;48.454;-2.058;2023-02-17T08:12:31;14.40;82.60
76613;DHT22;65507;48.454;-2.058;2023-02-17T08:15:14;14.50;82.50
76613;DHT22;65507;48.454;-2.058;2023-02-17T08:17:40;14.50;82.50
76613;DHT22;65507;48.454;-2.058;2023-02-17T08:20:06;14.50;82.40
76613;DHT22;65507;48.454;-2.058;2023-02-17T08:22:32;14.50;82.40
76613;DHT22;65507;48.454;-2.058;2023-02-17T08:24:58;14.60;82.50
76613;DHT22;65507;48.454;-2.058;2023-02-17T08:27:24;14.60;82.40
76613;DHT22;65507;48.454;-2.058;2023-02-17T08:29:49;14.60;82.40
76613;DHT22;65507;48.454;-2.058;2023-02-17T08:32:15;14.70;82.30
76613;DHT22;65507;48.454;-2.058;2023-02-17T08:34:41;14.70;82.30
76613;DHT22;65507;48.454;-2.058;2023-02-17T08:37:08;14.70;82.20
76613;DHT22;65507;48.454;-2.058;2023-02-17T08:39:34;14.80;82.20
76613;DHT22;65507;48.454;-2.058;2023-02-17T08:42:01;14.80;82.10
76613;DHT22;65507;48.454;-2.058;2023-02-17T08:44:27;14.80;82.10
76613;DHT22;65507;48.454;-2.058;2023-02-17T08:46:53;14.90;82.10
76613;DHT22;65507;48.454;-2.058;2023-02-17T08:49:21;14.90;82.00
76613;DHT22;65507;48.454;-2.058;2023-02-17T08:51:47;14.90;82.00
76613;DHT22;65507;48.454;-2.058;2023-02-17T08:54:13;14.90;82.00
76613;DHT22;65507;48.454;-2.058;2023-02-17T08:56:40;14.90;82.00
76613;DHT22;65507;48.454;-2.058;2023-02-17T08:59:07;14.90;82.00
76613;DHT22;65507;48.454;-2.058;2023-02-17T09:01:34;15.00;82.00
76613;DHT22;65507;48.454;-2.058;2023-02-17T09:04:02;15.00;81.90
76613;DHT22;65507;48.454;-2.058;2023-02-17T09:06:37;15.00;81.70
76613;DHT22;65507;48.454;-2.058;2023-02-17T09:09:04;15.10;81.80
76613;DHT22;65507;48.454;-2.058;2023-02-17T09:11:31;15.10;81.70
76613;DHT22;65507;48.454;-2.058;2023-02-17T09:13:56;15.10;81.60
76613;DHT22;65507;48.454;-2.058;2023-02-17T09:16:22;15.20;81.50
76613;DHT22;65507;48.454;-2.058;2023-02-17T09:18:51;15.20;81.40
76613;DHT22;65507;48.454;-2.058;2023-02-17T09:21:17;14.80;81.10
76613;DHT22;65507;48.454;-2.058;2023-02-17T09:23:44;15.30;81.30
76613;DHT22;65507;48.454;-2.058;2023-02-17T09:26:11;15.30;81.30
76613;DHT22;65507;48.454;-2.058;2023-02-17T09:28:38;15.30;81.50
76613;DHT22;65507;48.454;-2.058;2023-02-17T09:33:34;15.40;81.30
76613;DHT22;65507;48.454;-2.058;2023-02-17T09:36:01;15.50;81.20
76613;DHT22;65507;48.454;-2.058;2023-02-17T09:38:26;15.50;81.00
76613;DHT22;65507;48.454;-2.058;2023-02-17T09:40:52;15.60;80.90
76613;DHT22;65507;48.454;-2.058;2023-02-17T09:43:21;15.60;80.80
76613;DHT22;65507;48.454;-2.058;2023-02-17T09:45:51;15.60;80.80
76613;DHT22;65507;48.454;-2.058;2023-02-17T09:48:26;15.70;80.70
76613;DHT22;65507;48.454;-2.058;2023-02-17T09:51:00;15.70;80.50
76613;DHT22;65507;48.454;-2.058;2023-02-17T09:56:21;15.80;80.30
76613;DHT22;65507;48.454;-2.058;2023-02-17T09:58:59;15.90;80.20
76613;DHT22;65507;48.454;-2.058;2023-02-17T10:01:32;16.10;80.10
76613;DHT22;65507;48.454;-2.058;2023-02-17T10:06:58;15.70;79.60
76613;DHT22;65507;48.454;-2.058;2023-02-17T10:09:38;16.30;79.50
76613;DHT22;65507;48.454;-2.058;2023-02-17T10:12:13;16.40;79.40
76613;DHT22;65507;48.454;-2.058;2023-02-17T10:14:57;16.40;79.30
76613;DHT22;65507;48.454;-2.058;2023-02-17T10:17:59;16.40;79.20
76613;DHT22;65507;48.454;-2.058;2023-02-17T10:23:18;16.40;79.30
76613;DHT22;65507;48.454;-2.058;2023-02-17T10:26:08;16.40;79.20
76613;DHT22;65507;48.454;-2.058;2023-02-17T10:39:45;16.60;78.70
76613;DHT22;65507;48.454;-2.058;2023-02-17T10:44:49;16.60;78.80
76613;DHT22;65507;48.454;-2.058;2023-02-17T10:47:16;16.50;78.90
76613;DHT22;65507;48.454;-2.058;2023-02-17T10:49:46;16.50;78.90
76613;DHT22;65507;48.454;-2.058;2023-02-17T10:52:17;15.50;78.30
76613;DHT22;65507;48.454;-2.058;2023-02-17T10:55:06;16.60;78.60
76613;DHT22;65507;48.454;-2.058;2023-02-17T10:57:37;16.70;78.30
76613;DHT22;65507;48.454;-2.058;2023-02-17T11:00:09;16.90;78.20
76613;DHT22;65507;48.454;-2.058;2023-02-17T11:02:42;17.00;77.80
76613;DHT22;65507;48.454;-2.058;2023-02-17T11:05:26;17.00;77.80
76613;DHT22;65507;48.454;-2.058;2023-02-17T11:10:42;17.20;77.40
76613;DHT22;65507;48.454;-2.058;2023-02-17T11:13:45;17.30;77.30
76613;DHT22;65507;48.454;-2.058;2023-02-17T11:16:25;17.30;77.00
76613;DHT22;65507;48.454;-2.058;2023-02-17T11:18:52;17.10;77.50
76613;DHT22;65507;48.454;-2.058;2023-02-17T11:21:18;17.00;77.90
76613;DHT22;65507;48.454;-2.058;2023-02-17T11:24:26;16.90;78.00
76613;DHT22;65507;48.454;-2.058;2023-02-17T11:26:55;16.90;78.10
76613;DHT22;65507;48.454;-2.058;2023-02-17T11:29:22;16.90;78.10
76613;DHT22;65507;48.454;-2.058;2023-02-17T11:32:02;16.80;78.10
76613;DHT22;65507;48.454;-2.058;2023-02-17T11:34:33;16.80;78.00
76613;DHT22;65507;48.454;-2.058;2023-02-17T11:39:28;16.90;77.80
76613;DHT22;65507;48.454;-2.058;2023-02-17T11:41:54;18.40;78.60
76613;DHT22;65507;48.454;-2.058;2023-02-17T11:44:25;16.80;77.90
76613;DHT22;65507;48.454;-2.058;2023-02-17T12:05:28;16.50;78.70
76613;DHT22;65507;48.454;-2.058;2023-02-17T12:08:10;16.50;78.00
76613;DHT22;65507;48.454;-2.058;2023-02-17T12:10:52;16.60;77.80
76613;DHT22;65507;48.454;-2.058;2023-02-17T12:16:31;16.60;77.60
76613;DHT22;65507;48.454;-2.058;2023-02-17T12:24:57;16.70;77.30
76613;DHT22;65507;48.454;-2.058;2023-02-17T12:30:25;16.60;77.60
76613;DHT22;65507;48.454;-2.058;2023-02-17T12:35:42;16.80;77.40
76613;DHT22;65507;48.454;-2.058;2023-02-17T12:38:15;16.80;77.40
76613;DHT22;65507;48.454;-2.058;2023-02-17T12:40:49;16.90;77.20
76613;DHT22;65507;48.454;-2.058;2023-02-17T12:43:26;17.00;76.90
76613;DHT22;65507;48.454;-2.058;2023-02-17T12:45:55;17.10;76.80
76613;DHT22;65507;48.454;-2.058;2023-02-17T12:51:06;17.00;76.80
76613;DHT22;65507;48.454;-2.058;2023-02-17T12:54:12;16.90;77.10
76613;DHT22;65507;48.454;-2.058;2023-02-17T12:59:30;16.70;77.40
76613;DHT22;65507;48.454;-2.058;2023-02-17T13:02:04;16.50;77.70
76613;DHT22;65507;48.454;-2.058;2023-02-17T13:04:34;16.50;77.90
76613;DHT22;65507;48.454;-2.058;2023-02-17T13:09:39;16.40;77.80
76613;DHT22;65507;48.454;-2.058;2023-02-17T13:12:15;16.50;77.70
76613;DHT22;65507;48.454;-2.058;2023-02-17T13:14:46;16.50;77.50
76613;DHT22;65507;48.454;-2.058;2023-02-17T13:17:22;16.50;77.40
76613;DHT22;65507;48.454;-2.058;2023-02-17T13:20:23;16.50;77.20
76613;DHT22;65507;48.454;-2.058;2023-02-17T13:22:46;16.60;77.10
76613;DHT22;65507;48.454;-2.058;2023-02-17T13:25:34;16.60;77.00
76613;DHT22;65507;48.454;-2.058;2023-02-17T13:28:00;16.60;76.90
76613;DHT22;65507;48.454;-2.058;2023-02-17T13:30:38;16.60;77.00
76613;DHT22;65507;48.454;-2.058;2023-02-17T13:35:33;16.60;77.00
76613;DHT22;65507;48.454;-2.058;2023-02-17T13:37:59;16.70;76.80
76613;DHT22;65507;48.454;-2.058;2023-02-17T13:40:34;16.70;76.60
76613;DHT22;65507;48.454;-2.058;2023-02-17T13:43:16;16.80;76.30
76613;DHT22;65507;48.454;-2.058;2023-02-17T13:46:02;16.80;76.50
76613;DHT22;65507;48.454;-2.058;2023-02-17T13:48:29;16.90;76.10
76613;DHT22;65507;48.454;-2.058;2023-02-17T13:51:03;16.90;76.10
76613;DHT22;65507;48.454;-2.058;2023-02-17T13:53:35;16.90;75.90
76613;DHT22;65507;48.454;-2.058;2023-02-17T13:56:10;16.90;76.00
76613;DHT22;65507;48.454;-2.058;2023-02-17T13:58:38;16.70;76.20
76613;DHT22;65507;48.454;-2.058;2023-02-17T14:01:24;16.70;76.40
76613;DHT22;65507;48.454;-2.058;2023-02-17T14:03:53;16.70;76.30
76613;DHT22;65507;48.454;-2.058;2023-02-17T14:08:56;16.70;76.20
76613;DHT22;65507;48.454;-2.058;2023-02-17T14:11:26;16.70;76.20
76613;DHT22;65507;48.454;-2.058;2023-02-17T14:13:54;16.70;76.00
76613;DHT22;65507;48.454;-2.058;2023-02-17T14:21:37;16.80;75.40
76613;DHT22;65507;48.454;-2.058;2023-02-17T14:24:03;16.80;75.50
76613;DHT22;65507;48.454;-2.058;2023-02-17T14:26:45;16.80;75.50
76613;DHT22;65507;48.454;-2.058;2023-02-17T14:29:14;16.80;75.40
76613;DHT22;65507;48.454;-2.058;2023-02-17T14:31:47;16.70;75.70
76613;DHT22;65507;48.454;-2.058;2023-02-17T14:36:45;16.60;75.70
76613;DHT22;65507;48.454;-2.058;2023-02-17T14:39:13;16.60;75.60
76613;DHT22;65507;48.454;-2.058;2023-02-17T14:41:40;16.60;75.50
76613;DHT22;65507;48.454;-2.058;2023-02-17T14:44:06;16.70;75.40
76613;DHT22;65507;48.454;-2.058;2023-02-17T14:46:32;16.60;75.30
76613;DHT22;65507;48.454;-2.058;2023-02-17T14:48:58;16.50;75.40
76613;DHT22;65507;48.454;-2.058;2023-02-17T14:51:30;16.50;75.80
76613;DHT22;65507;48.454;-2.058;2023-02-17T14:53:56;16.50;75.40
76613;DHT22;65507;48.454;-2.058;2023-02-17T14:56:31;16.50;75.40
76613;DHT22;65507;48.454;-2.058;2023-02-17T14:58:58;16.50;75.40
76613;DHT22;65507;48.454;-2.058;2023-02-17T15:01:24;16.40;75.50
76613;DHT22;65507;48.454;-2.058;2023-02-17T15:03:51;16.30;75.60
76613;DHT22;65507;48.454;-2.058;2023-02-17T15:06:18;16.30;75.80
76613;DHT22;65507;48.454;-2.058;2023-02-17T15:08:45;16.30;76.00
76613;DHT22;65507;48.454;-2.058;2023-02-17T15:11:39;16.30;76.00
76613;DHT22;65507;48.454;-2.058;2023-02-17T15:14:12;16.30;75.90
76613;DHT22;65507;48.454;-2.058;2023-02-17T15:16:39;16.30;76.00
76613;DHT22;65507;48.454;-2.058;2023-02-17T15:19:04;16.30;76.10
76613;DHT22;65507;48.454;-2.058;2023-02-17T15:21:32;16.20;76.00
76613;DHT22;65507;48.454;-2.058;2023-02-17T15:24:00;16.20;76.10
76613;DHT22;65507;48.454;-2.058;2023-02-17T15:26:27;16.10;76.20
76613;DHT22;65507;48.454;-2.058;2023-02-17T15:28:55;16.10;76.30
76613;DHT22;65507;48.454;-2.058;2023-02-17T15:31:22;16.10;76.40
76613;DHT22;65507;48.454;-2.058;2023-02-17T15:33:54;16.00;76.50
76613;DHT22;65507;48.454;-2.058;2023-02-17T15:36:21;15.90;76.60
76613;DHT22;65507;48.454;-2.058;2023-02-17T15:38:47;15.80;76.90
76613;DHT22;65507;48.454;-2.058;2023-02-17T15:41:17;15.70;77.10
76613;DHT22;65507;48.454;-2.058;2023-02-17T15:43:46;15.60;77.30
76613;DHT22;65507;48.454;-2.058;2023-02-17T15:46:16;15.60;77.20
76613;DHT22;65507;48.454;-2.058;2023-02-17T15:48:43;15.60;77.10
76613;DHT22;65507;48.454;-2.058;2023-02-17T15:51:14;15.70;77.10
76613;DHT22;65507;48.454;-2.058;2023-02-17T15:53:40;15.70;77.00
76613;DHT22;65507;48.454;-2.058;2023-02-17T15:56:16;15.60;77.00
76613;DHT22;65507;48.454;-2.058;2023-02-17T15:58:43;15.60;77.10
76613;DHT22;65507;48.454;-2.058;2023-02-17T16:01:19;15.60;77.20
76613;DHT22;65507;48.454;-2.058;2023-02-17T16:03:46;15.50;77.20
76613;DHT22;65507;48.454;-2.058;2023-02-17T16:06:12;15.50;77.30
76613;DHT22;65507;48.454;-2.058;2023-02-17T16:08:38;15.40;77.50
76613;DHT22;65507;48.454;-2.058;2023-02-17T16:11:04;14.90;77.20
76613;DHT22;65507;48.454;-2.058;2023-02-17T16:13:30;15.40;77.40
76613;DHT22;65507;48.454;-2.058;2023-02-17T16:15:58;15.40;77.30
76613;DHT22;65507;48.454;-2.058;2023-02-17T16:18:24;15.50;77.30
76613;DHT22;65507;48.454;-2.058;2023-02-17T16:20:50;15.40;77.10
76613;DHT22;65507;48.454;-2.058;2023-02-17T16:23:16;15.40;77.20
76613;DHT22;65507;48.454;-2.058;2023-02-17T16:25:43;15.30;77.40
76613;DHT22;65507;48.454;-2.058;2023-02-17T16:28:18;15.30;77.40
76613;DHT22;65507;48.454;-2.058;2023-02-17T16:30:45;15.30;77.50
76613;DHT22;65507;48.454;-2.058;2023-02-17T16:33:11;15.30;77.50
76613;DHT22;65507;48.454;-2.058;2023-02-17T16:35:38;15.20;77.40
76613;DHT22;65507;48.454;-2.058;2023-02-17T16:38:10;15.20;77.50
76613;DHT22;65507;48.454;-2.058;2023-02-17T16:40:40;15.20;77.70
76613;DHT22;65507;48.454;-2.058;2023-02-17T16:43:13;15.10;77.50
76613;DHT22;65507;48.454;-2.058;2023-02-17T16:48:14;15.20;77.60
76613;DHT22;65507;48.454;-2.058;2023-02-17T16:50:43;15.20;77.50
76613;DHT22;65507;48.454;-2.058;2023-02-17T16:53:11;15.20;77.50
76613;DHT22;65507;48.454;-2.058;2023-02-17T16:55:38;15.20;77.40
76613;DHT22;65507;48.454;-2.058;2023-02-17T16:58:14;15.20;77.40
76613;DHT22;65507;48.454;-2.058;2023-02-17T17:00:41;15.20;77.40
76613;DHT22;65507;48.454;-2.058;2023-02-17T17:03:06;15.20;77.40
76613;DHT22;65507;48.454;-2.058;2023-02-17T17:05:32;15.20;77.50
76613;DHT22;65507;48.454;-2.058;2023-02-17T17:07:58;15.20;77.60
76613;DHT22;65507;48.454;-2.058;2023-02-17T17:10:26;15.20;77.60
76613;DHT22;65507;48.454;-2.058;2023-02-17T17:12:52;15.20;77.70
76613;DHT22;65507;48.454;-2.058;2023-02-17T17:15:18;15.20;77.70
76613;DHT22;65507;48.454;-2.058;2023-02-17T17:20:19;15.20;77.60
76613;DHT22;65507;48.454;-2.058;2023-02-17T17:22:45;15.10;77.70